createdAt,value
2023-12-17T00:00:46.599Z,15.30
2023-12-17T00:03:19.025Z,17.13
2023-12-17T00:05:49.616Z,14.70
2023-12-17T00:08:17.417Z,14.87
2023-12-17T00:10:45.022Z,16.20
2023-12-17T00:13:12.650Z,15.57
2023-12-17T00:15:40.530Z,15.30
2023-12-17T00:18:08.402Z,15.37
2023-12-17T00:20:36.302Z,16.57
2023-12-17T00:23:04.668Z,16.47
2023-12-17T00:25:32.651Z,15.80
2023-12-17T00:28:00.469Z,17.60
2023-12-17T00:30:28.226Z,15.63
2023-12-17T00:32:56.002Z,16.77
2023-12-17T00:35:23.919Z,16.53
2023-12-17T00:37:51.559Z,16.50
2023-12-17T00:40:19.218Z,15.67
2023-12-17T00:42:46.934Z,14.27
2023-12-17T00:45:14.773Z,15.97
2023-12-17T00:47:42.715Z,15.20
2023-12-17T00:50:10.657Z,16.80
2023-12-17T00:52:38.300Z,16.10
2023-12-17T00:55:06.199Z,16.80
2023-12-17T00:57:33.863Z,15.77
2023-12-17T01:00:01.708Z,16.53
2023-12-17T01:02:32.035Z,17.03
2023-12-17T01:04:59.692Z,16.23
2023-12-17T01:07:27.221Z,16.17
2023-12-17T01:09:54.952Z,16.07
2023-12-17T01:12:22.626Z,15.93
2023-12-17T01:14:50.466Z,16.80
2023-12-17T01:17:18.199Z,17.77
2023-12-17T01:19:45.811Z,17.07
2023-12-17T01:22:13.467Z,15.40
2023-12-17T01:24:42.237Z,16.83
2023-12-17T01:27:09.892Z,18.40
2023-12-17T01:29:37.582Z,17.67
2023-12-17T01:32:05.333Z,16.50
2023-12-17T01:34:33.021Z,17.73
2023-12-17T01:37:00.580Z,17.20
2023-12-17T01:39:28.343Z,17.20
2023-12-17T01:41:55.916Z,17.03
2023-12-17T01:44:23.625Z,16.43
2023-12-17T01:46:51.665Z,17.40
2023-12-17T01:49:20.084Z,18.07
2023-12-17T01:51:47.851Z,17.30
2023-12-17T01:54:15.496Z,17.97
2023-12-17T01:56:43.283Z,17.33
2023-12-17T01:59:10.990Z,17.53
2023-12-17T02:01:38.569Z,17.40
2023-12-17T02:04:06.766Z,18.27
2023-12-17T02:06:34.380Z,17.47
2023-12-17T02:09:02.180Z,18.67
2023-12-17T02:11:29.752Z,18.63
2023-12-17T02:13:57.418Z,17.33
2023-12-17T02:16:25.003Z,16.17
2023-12-17T02:18:52.717Z,17.43
2023-12-17T02:21:20.593Z,18.03
2023-12-17T02:23:48.312Z,18.00
2023-12-17T02:26:15.848Z,18.63
2023-12-17T02:28:43.540Z,17.40
2023-12-17T02:31:11.182Z,18.40
2023-12-17T02:33:39.074Z,18.30
2023-12-17T02:36:07.041Z,17.20
2023-12-17T02:38:35.004Z,17.20
2023-12-17T02:41:02.563Z,17.80
2023-12-17T02:43:30.170Z,17.87
2023-12-17T02:45:57.732Z,17.93
2023-12-17T02:48:25.489Z,16.60
2023-12-17T02:50:53.191Z,16.93
2023-12-17T02:53:20.896Z,17.80
2023-12-17T02:55:48.524Z,18.07
2023-12-17T02:58:16.188Z,15.83
2023-12-17T03:00:43.794Z,17.20
2023-12-17T03:03:11.508Z,16.03
2023-12-17T03:05:39.132Z,18.17
2023-12-17T03:08:06.806Z,16.47
2023-12-17T03:10:34.391Z,16.63
2023-12-17T03:13:02.130Z,18.07
2023-12-17T03:15:29.766Z,17.07
2023-12-17T03:17:57.472Z,16.87
2023-12-17T03:20:25.108Z,17.83
2023-12-17T03:22:52.744Z,17.07
2023-12-17T03:25:20.764Z,16.70
2023-12-17T03:27:48.616Z,17.33
2023-12-17T03:30:16.944Z,17.20
2023-12-17T03:32:44.908Z,17.77
2023-12-17T03:35:12.575Z,17.77
2023-12-17T03:37:40.382Z,17.47
2023-12-17T03:40:08.528Z,16.60
2023-12-17T03:42:36.121Z,15.27
2023-12-17T03:45:03.982Z,18.20
2023-12-17T03:47:31.643Z,16.30
2023-12-17T03:49:59.238Z,15.93
2023-12-17T03:52:26.824Z,15.50
2023-12-17T03:54:54.458Z,16.13
2023-12-17T03:57:22.128Z,16.20
2023-12-17T03:59:49.796Z,17.47
2023-12-17T04:02:18.184Z,16.10
2023-12-17T04:04:45.787Z,15.00
2023-12-17T04:07:13.492Z,16.70
2023-12-17T04:09:41.067Z,15.23
2023-12-17T04:12:08.757Z,15.73
2023-12-17T04:14:36.403Z,16.43
2023-12-17T04:17:04.202Z,16.03
2023-12-17T04:19:32.069Z,15.43
2023-12-17T04:21:59.691Z,15.37
2023-12-17T04:24:27.218Z,15.67
2023-12-17T04:26:54.857Z,14.27
2023-12-17T04:29:22.426Z,14.63
2023-12-17T04:31:50.057Z,14.10
2023-12-17T04:34:17.709Z,15.30
2023-12-17T04:36:45.496Z,14.93
2023-12-17T04:39:13.158Z,15.03
2023-12-17T04:41:41.195Z,14.33
2023-12-17T04:44:08.747Z,16.10
2023-12-17T04:46:36.431Z,15.87
2023-12-17T04:49:04.106Z,15.40
2023-12-17T04:51:31.896Z,15.53
2023-12-17T04:53:59.517Z,14.70
2023-12-17T04:56:27.152Z,15.17
2023-12-17T04:58:54.971Z,15.07
2023-12-17T05:01:22.792Z,14.10
2023-12-17T05:03:50.499Z,15.13
2023-12-17T05:06:18.555Z,14.47
2023-12-17T05:08:46.235Z,13.23
2023-12-17T05:11:13.910Z,14.07
2023-12-17T05:13:41.499Z,14.87
2023-12-17T05:16:09.190Z,14.57
2023-12-17T05:18:36.858Z,14.47
2023-12-17T05:21:04.693Z,14.00
2023-12-17T05:23:32.357Z,15.43
2023-12-17T05:26:00.679Z,13.90
2023-12-17T05:28:28.229Z,14.37
2023-12-17T05:30:55.957Z,14.63
2023-12-17T05:33:23.775Z,14.90
2023-12-17T05:35:51.526Z,14.63
2023-12-17T05:38:19.338Z,14.57
2023-12-17T05:40:47.024Z,13.57
2023-12-17T05:43:14.558Z,15.00
2023-12-17T05:45:44.771Z,14.17
2023-12-17T05:48:19.048Z,15.17
2023-12-17T05:50:46.794Z,13.90
2023-12-17T05:53:14.433Z,15.30
2023-12-17T05:55:42.006Z,15.23
2023-12-17T05:58:09.600Z,13.50
2023-12-17T06:00:37.234Z,14.50
2023-12-17T06:03:04.993Z,14.90
2023-12-17T06:05:32.627Z,13.90
2023-12-17T06:08:00.264Z,13.90
2023-12-17T06:10:27.823Z,14.40
2023-12-17T06:12:55.400Z,14.17
2023-12-17T06:15:23.107Z,14.97
2023-12-17T06:17:50.939Z,13.53
2023-12-17T06:20:18.624Z,13.13
2023-12-17T06:22:46.263Z,14.00
2023-12-17T06:25:13.857Z,14.43
2023-12-17T06:27:41.681Z,14.47
2023-12-17T06:30:09.701Z,14.20
2023-12-17T06:32:37.457Z,14.60
2023-12-17T06:35:05.231Z,14.37
2023-12-17T06:37:32.833Z,14.07
2023-12-17T06:40:00.428Z,14.83
2023-12-17T06:42:28.101Z,14.60
2023-12-17T06:44:55.723Z,14.07
2023-12-17T06:47:28.338Z,14.87
2023-12-17T06:49:56.942Z,13.43
2023-12-17T06:52:24.588Z,14.17
2023-12-17T06:54:52.222Z,14.07
2023-12-17T06:57:19.919Z,13.67
2023-12-17T06:59:47.660Z,14.00
2023-12-17T07:02:15.275Z,13.33
2023-12-17T07:04:42.869Z,13.73
2023-12-17T07:07:10.373Z,14.20
2023-12-17T07:09:37.969Z,13.13
2023-12-17T07:12:05.621Z,13.73
2023-12-17T07:14:33.310Z,13.33
2023-12-17T07:17:00.882Z,13.60
2023-12-17T07:19:28.617Z,13.10
2023-12-17T07:21:58.914Z,13.13
2023-12-17T07:24:26.701Z,12.57
2023-12-17T07:26:54.346Z,13.87
2023-12-17T07:29:21.972Z,13.83
2023-12-17T07:31:49.511Z,13.17
2023-12-17T07:34:20.382Z,13.27
2023-12-17T07:36:49.432Z,12.73
2023-12-17T07:39:17.079Z,12.20
2023-12-17T07:41:44.988Z,13.33
2023-12-17T07:44:12.659Z,12.97
2023-12-17T07:46:40.259Z,12.50
2023-12-17T07:49:07.960Z,12.43
2023-12-17T07:51:36.325Z,12.33
2023-12-17T07:54:04.044Z,13.30
2023-12-17T07:56:32.923Z,11.30
2023-12-17T07:59:00.544Z,12.40
2023-12-17T08:01:29.003Z,12.53
2023-12-17T08:03:56.849Z,11.57
2023-12-17T08:06:24.983Z,11.57
2023-12-17T08:08:52.935Z,12.17
2023-12-17T08:11:20.967Z,12.00
2023-12-17T08:13:48.888Z,12.07
2023-12-17T08:16:16.828Z,11.90
2023-12-17T08:18:44.472Z,11.57
2023-12-17T08:21:12.163Z,11.57
2023-12-17T08:23:42.247Z,10.80
2023-12-17T08:26:11.207Z,11.13
2023-12-17T08:28:38.763Z,10.30
2023-12-17T08:31:06.615Z,10.80
2023-12-17T08:33:34.348Z,10.83
2023-12-17T08:36:02.137Z,10.70
2023-12-17T08:38:29.736Z,11.60
2023-12-17T08:40:57.345Z,12.27
2023-12-17T08:43:24.882Z,10.00
2023-12-17T08:45:52.468Z,10.67
2023-12-17T08:48:20.668Z,11.10
2023-12-17T08:50:48.367Z,11.27
2023-12-17T08:53:15.939Z,12.10
2023-12-17T08:55:43.537Z,12.10
2023-12-17T08:58:11.104Z,11.30
2023-12-17T09:00:38.846Z,11.57
2023-12-17T09:03:06.551Z,11.23
2023-12-17T09:05:34.318Z,12.43
2023-12-17T09:08:01.908Z,13.10
2023-12-17T09:10:29.756Z,13.73
2023-12-17T09:12:57.314Z,13.37
2023-12-17T09:15:25.975Z,14.60
2023-12-17T09:17:53.688Z,13.87
2023-12-17T09:20:21.369Z,13.63
2023-12-17T09:22:48.900Z,14.43
2023-12-17T09:25:16.538Z,12.90
2023-12-17T09:27:44.131Z,13.37
2023-12-17T09:30:12.126Z,13.60
2023-12-17T09:32:39.872Z,13.90
2023-12-17T09:35:07.599Z,14.00
2023-12-17T09:37:35.122Z,12.57
2023-12-17T09:40:02.748Z,12.07
2023-12-17T09:42:30.427Z,12.43
2023-12-17T09:44:58.347Z,14.00
2023-12-17T09:47:25.975Z,13.07
2023-12-17T09:49:53.634Z,14.90
2023-12-17T09:52:21.649Z,16.27
2023-12-17T09:54:50.404Z,15.53
2023-12-17T09:57:18.213Z,15.53
2023-12-17T09:59:46.337Z,15.50
2023-12-17T10:02:16.875Z,15.57
2023-12-17T10:04:44.501Z,15.47
2023-12-17T10:07:12.097Z,16.57
2023-12-17T10:09:39.661Z,16.80
2023-12-17T10:12:08.121Z,15.33
2023-12-17T10:14:36.545Z,16.27
2023-12-17T10:17:04.100Z,16.03
2023-12-17T10:19:31.785Z,16.13
2023-12-17T10:21:59.453Z,16.47
2023-12-17T10:24:35.996Z,14.03
2023-12-17T10:27:05.700Z,14.87
2023-12-17T10:29:34.482Z,13.37
2023-12-17T10:32:02.830Z,12.73
2023-12-17T10:34:30.620Z,12.47
2023-12-17T10:36:59.030Z,11.70
2023-12-17T10:39:27.685Z,12.63
2023-12-17T10:41:55.798Z,11.03
2023-12-17T10:44:23.541Z,10.23
2023-12-17T10:46:52.633Z,10.33
2023-12-17T10:49:21.234Z,9.40
2023-12-17T10:51:49.962Z,9.37
2023-12-17T10:54:17.673Z,10.73
2023-12-17T10:56:54.078Z,9.13
2023-12-17T10:59:31.802Z,11.43
2023-12-17T11:02:06.342Z,11.33
2023-12-17T11:04:34.065Z,10.90
2023-12-17T11:07:01.695Z,10.80
2023-12-17T11:09:29.362Z,10.10
2023-12-17T11:11:57.071Z,9.17
2023-12-17T11:14:24.671Z,10.40
2023-12-17T11:16:53.870Z,10.70
2023-12-17T11:19:21.522Z,9.90
2023-12-17T11:21:50.034Z,10.37
2023-12-17T11:24:19.784Z,8.87
2023-12-17T11:26:49.816Z,9.83
2023-12-17T11:29:35.725Z,10.10
2023-12-17T11:32:03.452Z,10.23
2023-12-17T11:34:32.189Z,10.07
2023-12-17T11:37:00.331Z,9.43
2023-12-17T11:39:28.989Z,10.90
2023-12-17T11:41:56.693Z,10.10
2023-12-17T11:44:24.730Z,10.83
2023-12-17T11:46:53.040Z,9.93
2023-12-17T11:49:27.901Z,11.03
2023-12-17T11:51:55.887Z,11.00
2023-12-17T11:54:23.875Z,10.43
2023-12-17T11:56:51.708Z,10.87
2023-12-17T11:59:35.422Z,11.50
2023-12-17T12:02:03.107Z,10.70
2023-12-17T12:04:39.676Z,11.40
2023-12-17T12:07:07.357Z,11.87
2023-12-17T12:09:34.980Z,10.87
2023-12-17T12:12:02.758Z,11.00
2023-12-17T12:14:30.469Z,11.30
2023-12-17T12:16:58.086Z,10.90
2023-12-17T12:19:29.755Z,11.90
2023-12-17T12:21:59.709Z,11.20
2023-12-17T12:24:27.287Z,11.97
2023-12-17T12:26:55.215Z,12.23
2023-12-17T12:29:22.807Z,11.83
2023-12-17T12:31:53.918Z,11.73
2023-12-17T12:34:21.735Z,12.50
2023-12-17T12:36:49.958Z,12.07
2023-12-17T12:39:20.145Z,13.07
2023-12-17T12:41:48.763Z,12.67
2023-12-17T12:44:17.653Z,12.83
2023-12-17T12:46:47.987Z,13.03
2023-12-17T12:49:15.694Z,12.87
2023-12-17T12:51:43.544Z,12.90
2023-12-17T12:54:11.397Z,13.27
2023-12-17T12:56:39.025Z,12.40
2023-12-17T12:59:06.613Z,13.03
2023-12-17T13:01:34.241Z,12.47
2023-12-17T13:04:02.044Z,13.23
2023-12-17T13:06:29.823Z,13.47
2023-12-17T13:08:57.541Z,11.90
2023-12-17T13:11:25.221Z,13.57
2023-12-17T13:13:54.168Z,13.03
2023-12-17T13:16:21.925Z,14.03
2023-12-17T13:18:55.761Z,13.33
2023-12-17T13:21:29.725Z,13.47
2023-12-17T13:23:57.324Z,13.00
2023-12-17T13:26:24.980Z,12.57
2023-12-17T13:28:52.658Z,12.23
2023-12-17T13:31:20.311Z,12.20
2023-12-17T13:33:48.010Z,12.40
2023-12-17T13:36:15.794Z,13.77
2023-12-17T13:38:43.881Z,12.57
2023-12-17T13:41:11.521Z,12.63
2023-12-17T13:43:39.094Z,13.00
2023-12-17T13:46:07.035Z,12.10
2023-12-17T13:48:35.112Z,11.10
2023-12-17T13:51:02.955Z,11.77
2023-12-17T13:53:30.522Z,10.67
2023-12-17T13:55:58.120Z,11.83
2023-12-17T13:58:25.904Z,10.40
2023-12-17T14:00:53.817Z,9.87
2023-12-17T14:03:21.560Z,10.13
2023-12-17T14:05:49.321Z,10.60
2023-12-17T14:08:17.198Z,10.33
2023-12-17T14:10:45.039Z,9.47
2023-12-17T14:13:12.559Z,9.80
2023-12-17T14:15:40.278Z,9.43
2023-12-17T14:18:08.039Z,11.57
2023-12-17T14:20:35.660Z,10.87
2023-12-17T14:23:03.325Z,10.10
2023-12-17T14:25:36.294Z,9.57
2023-12-17T14:28:07.350Z,8.73
2023-12-17T14:30:35.271Z,9.10
2023-12-17T14:33:03.253Z,8.60
2023-12-17T14:35:30.979Z,8.10
2023-12-17T14:37:58.736Z,8.10
2023-12-17T14:40:26.290Z,8.57
2023-12-17T14:42:53.956Z,8.17
2023-12-17T14:45:21.573Z,8.10
2023-12-17T14:47:49.912Z,8.10
2023-12-17T14:50:17.529Z,8.07
2023-12-17T14:52:45.348Z,8.10
2023-12-17T14:55:12.901Z,8.33
2023-12-17T14:57:40.552Z,8.13
2023-12-17T15:00:10.523Z,8.27
2023-12-17T15:02:38.189Z,7.43
2023-12-17T15:05:05.954Z,7.03
2023-12-17T15:07:33.576Z,7.13
2023-12-17T15:10:01.750Z,7.13
2023-12-17T15:12:29.574Z,6.90
2023-12-17T15:14:57.207Z,6.83
2023-12-17T15:17:24.897Z,6.60
2023-12-17T15:19:52.706Z,6.40
2023-12-17T15:22:20.855Z,7.20
2023-12-17T15:24:49.550Z,7.53
2023-12-17T15:27:17.155Z,6.20
2023-12-17T15:29:44.941Z,7.03
2023-12-17T15:32:12.534Z,6.23
2023-12-17T15:34:40.130Z,6.50
2023-12-17T15:37:07.776Z,6.63
2023-12-17T15:39:36.710Z,7.00
2023-12-17T15:42:06.226Z,7.23
2023-12-17T15:44:33.909Z,7.10
2023-12-17T15:47:01.776Z,7.00
2023-12-17T15:49:29.418Z,7.17
2023-12-17T15:51:57.133Z,7.13
2023-12-17T15:54:24.747Z,6.47
2023-12-17T15:56:52.462Z,7.27
2023-12-17T15:59:20.036Z,6.77
2023-12-17T16:01:47.644Z,7.67
2023-12-17T16:04:15.483Z,7.23
2023-12-17T16:06:43.251Z,5.97
2023-12-17T16:09:11.026Z,6.70
2023-12-17T16:11:39.747Z,6.53
2023-12-17T16:14:07.472Z,6.67
2023-12-17T16:16:35.168Z,7.47
2023-12-17T16:19:02.818Z,7.00
2023-12-17T16:21:30.523Z,6.93
2023-12-17T16:23:58.355Z,6.67
2023-12-17T16:26:26.037Z,8.23
2023-12-17T16:28:53.590Z,7.77
2023-12-17T16:31:22.884Z,7.33
2023-12-17T16:33:50.535Z,8.00
2023-12-17T16:36:18.364Z,7.87
2023-12-17T16:38:46.081Z,8.57
2023-12-17T16:41:13.790Z,7.70
2023-12-17T16:43:41.352Z,8.20
2023-12-17T16:46:08.965Z,8.17
2023-12-17T16:48:36.659Z,9.10
2023-12-17T16:51:04.549Z,8.73
2023-12-17T16:53:32.195Z,9.17
2023-12-17T16:55:59.896Z,10.00
2023-12-17T16:58:27.448Z,10.23
2023-12-17T17:00:55.222Z,11.60
2023-12-17T17:03:22.917Z,11.03
2023-12-17T17:05:50.713Z,13.77
2023-12-17T17:08:18.368Z,12.50
2023-12-17T17:10:46.045Z,12.40
2023-12-17T17:13:13.690Z,12.23
2023-12-17T17:15:41.488Z,11.53
2023-12-17T17:18:09.211Z,11.40
2023-12-17T17:20:37.158Z,11.20
2023-12-17T17:23:04.998Z,11.47
2023-12-17T17:25:32.960Z,11.07
2023-12-17T17:28:00.769Z,11.07
2023-12-17T17:30:28.553Z,10.73
2023-12-17T17:32:56.294Z,11.33
2023-12-17T17:35:24.105Z,11.30
2023-12-17T17:37:51.971Z,11.63
2023-12-17T17:40:19.649Z,13.13
2023-12-17T17:42:47.511Z,13.70
2023-12-17T17:45:21.114Z,17.47
2023-12-17T17:47:49.018Z,20.97
2023-12-17T17:50:16.598Z,15.00
2023-12-17T17:52:44.510Z,14.50
2023-12-17T17:55:12.267Z,14.07
2023-12-17T17:57:39.906Z,13.97
2023-12-17T18:00:08.034Z,21.33
2023-12-17T18:02:35.745Z,17.07
2023-12-17T18:05:03.392Z,14.10
2023-12-17T18:07:31.151Z,13.23
2023-12-17T18:09:58.742Z,12.03
2023-12-17T18:12:26.995Z,12.33
2023-12-17T18:14:54.691Z,13.90
2023-12-17T18:17:22.462Z,12.63
2023-12-17T18:19:50.103Z,13.60
2023-12-17T18:22:17.791Z,14.50
2023-12-17T18:24:45.858Z,13.47
2023-12-17T18:27:13.507Z,15.00
2023-12-17T18:29:41.715Z,13.80
2023-12-17T18:32:09.328Z,14.20
2023-12-17T18:34:37.360Z,15.33
2023-12-17T18:37:05.310Z,14.43
2023-12-17T18:39:33.115Z,13.50
2023-12-17T18:42:00.849Z,14.77
2023-12-17T18:44:28.474Z,13.80
2023-12-17T18:46:56.190Z,14.17
2023-12-17T18:49:23.929Z,14.40
2023-12-17T18:51:51.658Z,12.73
2023-12-17T18:54:21.268Z,14.40
2023-12-17T18:56:49.013Z,14.07
2023-12-17T18:59:16.597Z,13.97
2023-12-17T19:01:44.199Z,14.53
2023-12-17T19:04:11.949Z,14.27
2023-12-17T19:06:39.785Z,15.50
2023-12-17T19:09:07.519Z,14.33
2023-12-17T19:11:35.351Z,14.37
2023-12-17T19:14:03.026Z,14.67
2023-12-17T19:16:30.690Z,14.83
2023-12-17T19:18:58.457Z,15.37
2023-12-17T19:21:26.147Z,16.87
2023-12-17T19:23:53.771Z,16.73
2023-12-17T19:26:21.461Z,17.67
2023-12-17T19:28:49.028Z,17.13
2023-12-17T19:31:16.820Z,17.13
2023-12-17T19:33:44.560Z,17.13
2023-12-17T19:36:12.278Z,17.07
2023-12-17T19:38:40.097Z,17.23
2023-12-17T19:41:07.946Z,17.93
2023-12-17T19:43:35.527Z,16.33
2023-12-17T19:46:03.311Z,16.80
2023-12-17T19:48:31.043Z,18.57
2023-12-17T19:50:58.831Z,16.83
2023-12-17T19:53:26.416Z,16.80
2023-12-17T19:55:54.469Z,17.80
2023-12-17T19:58:22.438Z,17.40
2023-12-17T20:00:50.257Z,18.23
2023-12-17T20:03:18.256Z,17.60
2023-12-17T20:05:46.304Z,19.00
2023-12-17T20:08:13.962Z,18.40
2023-12-17T20:10:41.892Z,20.00
2023-12-17T20:13:09.520Z,21.43
2023-12-17T20:15:37.625Z,20.07
2023-12-17T20:18:05.857Z,21.30
2023-12-17T20:20:33.785Z,20.57
2023-12-17T20:23:01.402Z,19.00
2023-12-17T20:25:29.168Z,17.73
2023-12-17T20:27:56.784Z,19.53
2023-12-17T20:30:24.502Z,19.90
2023-12-17T20:32:52.255Z,18.60
2023-12-17T20:35:19.908Z,17.77
2023-12-17T20:37:47.506Z,18.17
2023-12-17T20:40:15.152Z,18.43
2023-12-17T20:42:43.040Z,18.60
2023-12-17T20:45:11.162Z,19.07
2023-12-17T20:47:38.947Z,20.73
2023-12-17T20:50:07.639Z,18.87
2023-12-17T20:52:35.277Z,20.20
2023-12-17T20:55:07.116Z,20.00
2023-12-17T20:57:36.937Z,19.53
2023-12-17T21:00:05.241Z,19.73
2023-12-17T21:02:32.871Z,19.80
2023-12-17T21:05:00.599Z,19.30
2023-12-17T21:07:28.640Z,20.23
2023-12-17T21:09:56.510Z,21.50
2023-12-17T21:12:24.212Z,19.87
2023-12-17T21:14:51.809Z,19.23
2023-12-17T21:17:19.466Z,18.60
2023-12-17T21:19:47.472Z,19.07
2023-12-17T21:22:15.094Z,19.93
2023-12-17T21:24:44.117Z,21.10
2023-12-17T21:27:21.440Z,22.23
2023-12-17T21:29:49.143Z,21.33
2023-12-17T21:32:16.739Z,22.40
2023-12-17T21:34:44.527Z,20.43
2023-12-17T21:37:12.407Z,21.07
2023-12-17T21:39:40.275Z,20.87
2023-12-17T21:42:08.008Z,20.73
2023-12-17T21:44:35.601Z,20.83
2023-12-17T21:47:03.183Z,19.93
2023-12-17T21:49:30.842Z,19.73
2023-12-17T21:52:05.013Z,19.87
2023-12-17T21:54:32.782Z,21.67
2023-12-17T21:57:17.132Z,19.40
2023-12-17T21:59:47.852Z,20.57
2023-12-17T22:02:15.470Z,20.60
2023-12-17T22:04:44.634Z,19.30
2023-12-17T22:07:12.196Z,20.77
2023-12-17T22:09:40.125Z,20.63
2023-12-17T22:12:08.103Z,18.23
2023-12-17T22:14:35.948Z,21.23
2023-12-17T22:17:03.560Z,19.70
2023-12-17T22:19:31.231Z,19.23
2023-12-17T22:21:58.927Z,21.60
2023-12-17T22:24:26.706Z,20.10
2023-12-17T22:26:54.350Z,19.90
2023-12-17T22:29:21.984Z,20.73
2023-12-17T22:31:51.756Z,21.13
2023-12-17T22:34:20.898Z,19.83
2023-12-17T22:36:48.500Z,19.70
2023-12-17T22:39:16.182Z,18.13
2023-12-17T22:41:43.770Z,20.03
2023-12-17T22:44:11.413Z,18.27
2023-12-17T22:46:39.139Z,18.13
2023-12-17T22:49:07.185Z,17.47
2023-12-17T22:51:34.960Z,16.73
2023-12-17T22:54:02.682Z,15.60
2023-12-17T22:56:30.238Z,15.30
2023-12-17T22:58:57.944Z,14.13
2023-12-17T23:01:25.531Z,13.43
2023-12-17T23:03:53.290Z,14.50
2023-12-17T23:06:20.924Z,13.20
2023-12-17T23:08:49.001Z,14.37
2023-12-17T23:11:16.540Z,14.23
2023-12-17T23:13:44.207Z,16.03
2023-12-17T23:16:11.756Z,14.57
2023-12-17T23:18:39.478Z,14.67
2023-12-17T23:21:07.183Z,16.53
2023-12-17T23:23:34.836Z,14.97
2023-12-17T23:26:02.413Z,15.73
2023-12-17T23:28:30.041Z,14.70
2023-12-17T23:30:57.651Z,14.23
2023-12-17T23:33:25.422Z,14.93
2023-12-17T23:35:53.175Z,15.73
2023-12-17T23:38:20.838Z,14.57
2023-12-17T23:40:48.496Z,12.80
2023-12-17T23:43:16.204Z,12.60
2023-12-17T23:45:43.955Z,12.40
2023-12-17T23:48:11.797Z,13.10
2023-12-17T23:50:39.569Z,12.50
2023-12-17T23:53:07.183Z,12.77
2023-12-17T23:55:34.789Z,13.33
2023-12-17T23:58:02.460Z,11.73
